This is the latest recevied weather packets stored in our database for station/object K4OAM-13. If no packets are shown the sender has not sent any weather packets the latest 10 day(s).
| Time | Temp. | Humidity | Pressure | Rain* | Wind** | Luminosity | Snow |
|---|---|---|---|---|---|---|---|
| 1787586539 | 7.22° C | 72% | 1016.6 hPa | - | - | - | - |
| 1787585939 | 6.67° C | 75% | 1016.7 hPa | - | - | - | - |
| 1787585339 | 6.67° C | 74% | 1016.9 hPa | - | - | - | - |
| 1787584739 | 7.22° C | 73% | 1016.8 hPa | - | - | - | - |
| 1787584138 | 7.22° C | 73% | 1016.9 hPa | - | - | - | - |
| 1787583539 | 6.67° C | 74% | 1017.2 hPa | - | - | - | - |
| 1787582939 | 5.56° C | 76% | 1017.1 hPa | - | - | - | - |
| 1787582339 | 6.67° C | 74% | 1017.2 hPa | - | - | - | - |
| 1787581739 | 5.56° C | 75% | 1017.6 hPa | - | - | - | - |
| 1787581138 | 6.67° C | 75% | 1017.1 hPa | - | - | - | - |
| 1787580539 | 6.11° C | 75% | 1017.4 hPa | - | - | - | - |
| 1787579939 | 5.56° C | 77% | 1017.6 hPa | - | - | - | - |
| 1787579339 | 6.11° C | 75% | 1017.5 hPa | - | - | - | - |
| 1787578739 | 5° C | 76% | 1017.8 hPa | - | - | - | - |
| 1787578139 | 6.11° C | 75% | 1017.4 hPa | - | - | - | - |
| 1787577539 | 5.56° C | 76% | 1017.3 hPa | - | - | - | - |
| 1787576939 | 6.11° C | 77% | 1017.7 hPa | - | - | - | - |
| 1787576339 | 5° C | 80% | 1017.6 hPa | - | - | - | - |
| 1787575738 | 5° C | 82% | 1017.4 hPa | - | - | - | - |
| 1787575138 | 5° C | 82% | 1017.5 hPa | - | - | - | - |
| 1787574538 | 4.44° C | 84% | 1017.8 hPa | - | - | - | - |
| 1787573938 | 3.89° C | 86% | 1018.1 hPa | - | - | - | - |
| 1787573339 | 4.44° C | 86% | 1018 hPa | - | - | - | - |
| 1787572739 | 3.89° C | 86% | 1018.3 hPa | - | - | - | - |
| 1787572139 | 3.89° C | 85% | 1018.4 hPa | - | - | - | - |
* Rain since midnight (hover to see other rain measurements)
** Current wind speed in m/s (hover to see current wind gust speed)